Thunder radar more information blitzortung!


Radar de pluja more information rain snow radar


Visita la nostra xarxa de llocs de meteo:

Template documentation
and downloads

And another site



No particular awareness of the weather is required.    There are no Weather-warnings

Pagina Historial Weather Underground text

Diari Resum Abril 30, 2016 Unitats:  Mètric    Imperial   Tant
« Previous Dia
SegĂźent Dia »
Diari Setmana Mensual Anual Personalitzada
  Maxima: Minima: Media:
Temperatura: -17.8 °C -12.3 °C -10.3 °C
Punt de rosada: -17.8 °C -17.2 °C -13.1 °C
Humitat: Humidity % 41 % 72 %
Wind Speed: 0 km/h 0 km/h 13.2 km/h
RĂ fegues de vent: 0 km/h - -
Vent:- - SSE
Pression baro: 0 hPa 34428.8 hPa -
Precipitacions: 50.8 mm    
Historical Graphs
 
 
Dades de taula per Abril 30, 2016
Temps Temperatura Punt de rosada Pression baro Vent Wind Speed RĂ fegues de vent Humitat Rainfall Rate (Hourly)
-17.8 °C -17.8 °C 0 hPa Calm     Humidity % 0 mm
00:04 -11.3 °C -13.6 °C 34496.6 hPa Calm     76 % 0 mm
00:05 -11.9 °C -13.7 °C 34462.7 hPa Calm     80 % 0 mm
00:15 -11.9 °C -13.8 °C 34462.7 hPa Calm   5.1 km/h 80 % 0 mm
00:25 -12 °C -13.7 °C 34462.7 hPa SW 2.6 km/h 5.1 km/h 81 % 0 mm
00:35 -12 °C -13.7 °C 34462.7 hPa Calm   2.6 km/h 81 % 0 mm
00:45 -12 °C -13.7 °C 34462.7 hPa WSW 2.6 km/h 2.6 km/h 82 % 0 mm
00:55 -12 °C -13.7 °C 34462.7 hPa WSW 2.6 km/h 5.1 km/h 82 % 0 mm
01:05 -11.9 °C -13.5 °C 34428.8 hPa West 2.6 km/h 2.6 km/h 83 % 0 mm
01:15 -11.9 °C -13.3 °C 34428.8 hPa Calm     84 % 0 mm
01:25 -11.9 °C -13.3 °C 34428.8 hPa Calm     84 % 25.4 mm
01:35 -11.9 °C -13.2 °C 34462.7 hPa Calm     85 % 25.4 mm
01:45 -11.9 °C -13.2 °C 34462.7 hPa Calm   2.6 km/h 85 % 0 mm
01:55 -11.9 °C -13.3 °C 34462.7 hPa Calm   2.6 km/h 85 % 25.4 mm
02:05 -11.9 °C -13.2 °C 34462.7 hPa South 2.6 km/h 5.1 km/h 86 % 25.4 mm
02:15 -12 °C -13.2 °C 34428.8 hPa Calm   2.6 km/h 86 % 0 mm
02:35 -12.1 °C -13.4 °C 34428.8 hPa SSE 2.6 km/h 7.7 km/h 85 % 0 mm
02:45 -12.1 °C -13.4 °C 34428.8 hPa SSW 2.6 km/h 5.1 km/h 85 % 0 mm
02:55 -12.1 °C -13.3 °C 34428.8 hPa Calm   5.1 km/h 86 % 0 mm
03:05 -12 °C -13.2 °C 34462.7 hPa Calm     86 % 0 mm
03:15 -11.9 °C -13.1 °C 34462.7 hPa Calm   5.1 km/h 87 % 0 mm
03:25 -11.9 °C -12.9 °C 34462.7 hPa Calm   7.7 km/h 88 % 0 mm
03:35 -11.8 °C -12.9 °C 34462.7 hPa NNW 2.6 km/h 10.3 km/h 88 % 0 mm
03:45 -11.8 °C -12.8 °C 34462.7 hPa South 2.6 km/h 5.1 km/h 89 % 0 mm
03:55 -11.8 °C -12.8 °C 34462.7 hPa Calm   5.1 km/h 88 % 0 mm
04:05 -11.7 °C -12.7 °C 34462.7 hPa Calm   2.6 km/h 89 % 0 mm
04:15 -11.7 °C -12.8 °C 34462.7 hPa SW 2.6 km/h 5.1 km/h 87 % 0 mm
04:25 -11.6 °C -12.7 °C 34462.7 hPa SW 2.6 km/h 5.1 km/h 88 % 0 mm
04:35 -11.4 °C -12.5 °C 34428.8 hPa Calm   2.6 km/h 88 % 0 mm
04:45 -11.3 °C -12.4 °C 34462.7 hPa WSW 2.6 km/h 2.6 km/h 88 % 0 mm
04:55 -11.3 °C -12.3 °C 34462.7 hPa Calm   2.6 km/h 89 % 0 mm
05:05 -11.2 °C -12.1 °C 34462.7 hPa NNE 2.6 km/h 5.1 km/h 90 % 0 mm
05:15 -11.1 °C -12 °C 34462.7 hPa NE 2.6 km/h 5.1 km/h 90 % 0 mm
05:25 -11.1 °C -11.9 °C 34462.7 hPa NE 5.1 km/h 5.1 km/h 90 % 0 mm
05:35 -11 °C -11.9 °C 34462.7 hPa Calm     90 % 0 mm
05:45 -10.9 °C -11.8 °C 34462.7 hPa NE 2.6 km/h 2.6 km/h 90 % 0 mm
10:46 -10.8 °C -11.7 °C 34462.7 hPa Calm     90 % 0 mm
10:51 -10.8 °C -11.7 °C 34462.7 hPa ENE 3.1 km/h   90 % 0 mm
10:56 -10.8 °C -11.7 °C 34462.7 hPa ENE 3.1 km/h   90 % 0 mm
11:01 -10.8 °C -11.7 °C 34462.7 hPa Calm     90 % 0 mm
11:06 -10.7 °C -11.6 °C 34462.7 hPa SW 3.1 km/h 3.1 km/h 90 % 0 mm
11:11 -10.7 °C -11.6 °C 34462.7 hPa SW 3.1 km/h   89 % 0 mm
11:16 -10.6 °C -11.4 °C 34462.7 hPa SW 4.2 km/h   90 % 0 mm
11:21 -10.6 °C -11.4 °C 34462.7 hPa South 6 km/h 6.3 km/h 90 % 0 mm
11:26 -10.5 °C -11.4 °C 34462.7 hPa South 9 km/h 9 km/h 90 % 0 mm
11:31 -10.4 °C -11.4 °C 34462.7 hPa ESE 9 km/h 9 km/h 89 % 0 mm
11:36 -10.4 °C -11.4 °C 34462.7 hPa ESE 6 km/h 6 km/h 89 % 0 mm
11:41 -10.3 °C -11.3 °C 34462.7 hPa SSE 3.1 km/h   89 % 0 mm
11:46 -10.1 °C -11.2 °C 34462.7 hPa WSW 6 km/h 6.3 km/h 88 % 0 mm
11:51 -9.8 °C -10.9 °C 34462.7 hPa SSE 3.1 km/h   88 % 0 mm
11:56 -9.7 °C -10.8 °C 34462.7 hPa SE 6 km/h 6 km/h 88 % 0 mm
12:01 -9.7 °C -10.9 °C 34462.7 hPa SW 9 km/h 9 km/h 87 % 0 mm
12:06 -9.4 °C -10.7 °C 34462.7 hPa South 6 km/h 6 km/h 87 % 0 mm
12:11 -9.4 °C -10.7 °C 34462.7 hPa WSW 11.9 km/h 11.9 km/h 86 % 0 mm
12:16 -9.4 °C -11.2 °C 34462.7 hPa West 15 km/h 15 km/h 82 % 0 mm
12:21 -9.4 °C -11.3 °C 34462.7 hPa NW 9 km/h 9 km/h 80 % 0 mm
12:26 -9.4 °C -11.4 °C 34462.7 hPa WNW 6 km/h 6.8 km/h 79 % 0 mm
12:31 -9.2 °C -11.2 °C 34462.7 hPa SSW 9 km/h 9 km/h 79 % 0 mm
12:36 -9.3 °C -11.4 °C 34462.7 hPa WSW 15 km/h 15 km/h 78 % 0 mm
12:41 -9.2 °C -11.4 °C 34462.7 hPa West 8 km/h 9.3 km/h 77 % 0 mm
12:46 -9.2 °C -11.6 °C 34462.7 hPa WSW 11.9 km/h 11.9 km/h 75 % 0 mm
12:51 -8.9 °C -11.5 °C 34462.7 hPa SW 17.9 km/h 17.9 km/h 74 % 0 mm
12:56 -8.8 °C -11.3 °C 34462.7 hPa WSW 12.7 km/h 12.7 km/h 74 % 0 mm
13:01 -8.8 °C -11.5 °C 34462.7 hPa WSW 6 km/h 6 km/h 73 % 0 mm
13:06 -8.7 °C -11.3 °C 34462.7 hPa SW 6 km/h 6 km/h 74 % 0 mm
13:11 -8.4 °C -11.2 °C 34462.7 hPa WSW 10.3 km/h 10.3 km/h 72 % 0 mm
13:16 -8.6 °C -11.9 °C 34462.7 hPa SW 15 km/h 15 km/h 68 % 0 mm
13:21 -8.4 °C -11.8 °C 34462.7 hPa WSW 9 km/h 9 km/h 68 % 0 mm
13:26 -8.2 °C -11.5 °C 34462.7 hPa WSW 9 km/h 9 km/h 68 % 0 mm
13:31 -7.9 °C -11.3 °C 34462.7 hPa SW 15.6 km/h 15.6 km/h 67 % 0 mm
13:36 -7.9 °C -11.6 °C 34462.7 hPa SE 17.9 km/h 17.9 km/h 65 % 0 mm
13:41 -7.8 °C -11.3 °C 34462.7 hPa SW 9 km/h 9 km/h 66 % 0 mm
13:46 -7.5 °C -11.3 °C 34462.7 hPa NE 6 km/h 6 km/h 64 % 0 mm
13:51 -7.3 °C -11.3 °C 34462.7 hPa NNE 6 km/h 6 km/h 63 % 0 mm
13:56 -7.1 °C -11.2 °C 34462.7 hPa WSW 11.9 km/h 11.9 km/h 62 % 0 mm
14:01 -7 °C -11.6 °C 34462.7 hPa SW 11.9 km/h 11.9 km/h 59 % 0 mm
14:06 -7.3 °C -12.4 °C 34462.7 hPa SW 15 km/h 15.3 km/h 55 % 0 mm
14:11 -7.3 °C -12.1 °C 34462.7 hPa WSW 9 km/h 9.3 km/h 58 % 0 mm
14:16 -7.6 °C -12.6 °C 34462.7 hPa WSW 15 km/h 15 km/h 56 % 0 mm
14:21 -7.7 °C -12.6 °C 34462.7 hPa WSW 15.6 km/h 15.6 km/h 56 % 0 mm
14:31 -7.3 °C -12.6 °C 34428.8 hPa WSW 15 km/h 15 km/h 54 % 0 mm
14:36 -7.2 °C -12.7 °C 34428.8 hPa SSW 11.9 km/h 11.9 km/h 53 % 0 mm
14:41 -7 °C -12.6 °C 34462.7 hPa West 17.9 km/h 17.9 km/h 52 % 0 mm
14:46 -6.9 °C -12.7 °C 34462.7 hPa WSW 11.9 km/h 11.9 km/h 51 % 0 mm
14:56 -6.9 °C -13 °C 34428.8 hPa WSW 16.1 km/h 16.1 km/h 49 % 0 mm
15:01 -6.8 °C -13.1 °C 34428.8 hPa WSW 15 km/h 15 km/h 48 % 0 mm
15:06 -6.7 °C -13.2 °C 34428.8 hPa South 15.3 km/h 15.3 km/h 47 % 0 mm
15:11 -6.6 °C -13.2 °C 34462.7 hPa WSW 9.8 km/h 9.8 km/h 46 % 0 mm
15:16 -6.5 °C -13.4 °C 34462.7 hPa WNW 11.9 km/h 12.7 km/h 45 % 0 mm
15:21 -6.6 °C -13.3 °C 34462.7 hPa WSW 9.8 km/h 9.8 km/h 46 % 0 mm
15:26 -6.4 °C -13.4 °C 34462.7 hPa WSW 11.9 km/h 11.9 km/h 44 % 0 mm
15:31 -6.2 °C -13.3 °C 34462.7 hPa WSW 15.3 km/h 15.3 km/h 44 % 0 mm
15:36 -6.4 °C -14.1 °C 34462.7 hPa ESE 15 km/h 15 km/h 41 % 0 mm
15:41 -7.1 °C -13.2 °C 34462.7 hPa NNE 15 km/h 15 km/h 49 % 0 mm
15:46 -7.4 °C -13 °C 34462.7 hPa East 15 km/h 15 km/h 52 % 0 mm
15:51 -7.6 °C -13 °C 34462.7 hPa NNE 15 km/h 15 km/h 53 % 0 mm
15:56 -8.2 °C -13.3 °C 34462.7 hPa East 23.8 km/h 23.8 km/h 55 % 0 mm
16:01 -8.7 °C -13.2 °C 34462.7 hPa East 44.7 km/h 44.7 km/h 59 % 0 mm
16:06 -9.2 °C -13.4 °C 34462.7 hPa ESE 34.9 km/h 34.9 km/h 61 % 0 mm
16:11 -9.4 °C -13.3 °C 34462.7 hPa East 35.7 km/h 35.7 km/h 63 % 0 mm
16:16 -9.4 °C -13.3 °C 34462.7 hPa ESE 38.8 km/h 38.8 km/h 63 % 0 mm
16:21 -9.4 °C -13.2 °C 34462.7 hPa ESE 32.8 km/h 32.8 km/h 64 % 0 mm
16:26 -9.6 °C -13.3 °C 34462.7 hPa East 32.8 km/h 32.8 km/h 64 % 0 mm
16:31 -9.5 °C -13.1 °C 34462.7 hPa East 32.8 km/h 32.8 km/h 65 % 0 mm
16:36 -9.3 °C -13.1 °C 34462.7 hPa East 29.8 km/h 29.8 km/h 64 % 0 mm
16:41 -9.4 °C -13.1 °C 34462.7 hPa East 35.7 km/h 35.7 km/h 65 % 0 mm
16:46 -9.4 °C -13.1 °C 34462.7 hPa ENE 41.7 km/h 41.7 km/h 65 % 0 mm
16:51 -9.6 °C -13.1 °C 34462.7 hPa ENE 44.7 km/h 44.7 km/h 66 % 0 mm
16:52 -9.6 °C -12.9 °C 34462.7 hPa ENE 26.9 km/h 26.9 km/h 67 % 0 mm
17:02 -9.7 °C -13 °C 34462.7 hPa ESE 44.7 km/h 44.7 km/h 67 % 0 mm
17:07 -9.7 °C -12.9 °C 34462.7 hPa ENE 41.7 km/h 41.7 km/h 68 % 0 mm
17:12 -9.8 °C -13 °C 34462.7 hPa ENE 50.7 km/h 50.7 km/h 68 % 0 mm
17:17 -9.8 °C -13.1 °C 34462.7 hPa ENE 44.7 km/h 44.7 km/h 68 % 0 mm
17:22 -9.9 °C -13.1 °C 34462.7 hPa East 35.7 km/h 35.7 km/h 68 % 0 mm
17:27 -9.9 °C -13.1 °C 34462.7 hPa East 29.8 km/h 29.8 km/h 68 % 0 mm
17:32 -10 °C -13.2 °C 34462.7 hPa ENE 37 km/h 37 km/h 68 % 0 mm
17:37 -10.1 °C -13.3 °C 34462.7 hPa ESE 32.8 km/h 32.8 km/h 68 % 0 mm
17:42 -10.1 °C -13.3 °C 34462.7 hPa ESE 20.9 km/h 20.9 km/h 68 % 0 mm
17:47 -10.1 °C -13.3 °C 34462.7 hPa ESE 38.1 km/h 38.1 km/h 68 % 0 mm
17:52 -10.2 °C -13.4 °C 34462.7 hPa ESE 23.8 km/h 24.3 km/h 68 % 0 mm
17:57 -10.2 °C -13.4 °C 34462.7 hPa ESE 26.9 km/h 26.9 km/h 68 % 0 mm
18:02 -10.1 °C -13.3 °C 34462.7 hPa ESE 32.8 km/h 32.8 km/h 68 % 0 mm
18:07 -10.1 °C -13.3 °C 34462.7 hPa ESE 26.9 km/h 26.9 km/h 68 % 0 mm
18:12 -10 °C -13.2 °C 34496.6 hPa SE 26.4 km/h 26.4 km/h 68 % 0 mm
18:17 -10.1 °C -13.4 °C 34496.6 hPa ESE 32.8 km/h 32.8 km/h 67 % 0 mm
18:22 -10.2 °C -13.5 °C 34496.6 hPa East 23.8 km/h 23.8 km/h 67 % 0 mm
18:27 -10.2 °C -13.4 °C 34496.6 hPa ESE 20.9 km/h 20.9 km/h 68 % 0 mm
18:32 -10.3 °C -13.5 °C 34496.6 hPa ESE 29.8 km/h 29.8 km/h 68 % 0 mm
18:37 -10.3 °C -13.7 °C 34496.6 hPa ESE 41.7 km/h 41.7 km/h 67 % 0 mm
18:42 -10.3 °C -13.6 °C 34496.6 hPa SE 29.8 km/h 29.8 km/h 68 % 0 mm
18:47 -10.4 °C -13.7 °C 34496.6 hPa ESE 26.9 km/h 26.9 km/h 67 % 0 mm
18:52 -10.3 °C -13.6 °C 34496.6 hPa South 20.9 km/h 20.9 km/h 67 % 0 mm
18:57 -10.3 °C -13.5 °C 34496.6 hPa ENE 15 km/h 15 km/h 68 % 0 mm
19:02 -10.3 °C -13.6 °C 34496.6 hPa ESE 20.9 km/h 20.9 km/h 68 % 0 mm
19:03 -10.3 °C -13.6 °C 34496.6 hPa East 20.9 km/h 20.9 km/h 68 % 0 mm
19:08 -10.4 °C -13.7 °C 34496.6 hPa ESE 20.9 km/h 20.9 km/h 68 % 0 mm
19:13 -10.5 °C -13.7 °C 34496.6 hPa ESE 20.9 km/h 20.9 km/h 68 % 0 mm
19:18 -10.4 °C -13.6 °C 34496.6 hPa East 27.2 km/h 27.2 km/h 69 % 0 mm
19:23 -10.6 °C -13.7 °C 34496.6 hPa ESE 26.9 km/h 26.9 km/h 69 % 0 mm
19:28 -10.6 °C -13.7 °C 34496.6 hPa East 17.9 km/h 17.9 km/h 69 % 0 mm
19:33 -10.7 °C -13.7 °C 34496.6 hPa ESE 17.9 km/h 17.9 km/h 69 % 0 mm
19:38 -10.7 °C -13.7 °C 34496.6 hPa ESE 15 km/h 15 km/h 70 % 0 mm
19:43 -10.8 °C -13.7 °C 34496.6 hPa ESE 32.8 km/h 32.8 km/h 70 % 0 mm
19:48 -10.8 °C -13.8 °C 34496.6 hPa East 23.8 km/h 23.8 km/h 70 % 0 mm
19:53 -10.9 °C -13.8 °C 34496.6 hPa ESE 23.8 km/h 23.8 km/h 70 % 0 mm
19:58 -10.9 °C -13.7 °C 34533.8 hPa ESE 17.9 km/h 17.9 km/h 71 % 0 mm
20:03 -10.9 °C -13.7 °C 34533.8 hPa ESE 25.1 km/h 25.1 km/h 72 % 0 mm
20:08 -10.9 °C -13.7 °C 34533.8 hPa ESE 15 km/h 15 km/h 72 % 0 mm
20:13 -10.9 °C -13.7 °C 34533.8 hPa ENE 17.9 km/h 17.9 km/h 72 % 0 mm
20:18 -11 °C -13.7 °C 34533.8 hPa ESE 20.9 km/h 20.9 km/h 72 % 0 mm
20:23 -11 °C -13.7 °C 34533.8 hPa NE 14.5 km/h 14.5 km/h 72 % 0 mm
20:28 -11.1 °C -13.7 °C 34533.8 hPa ESE 11.9 km/h 11.9 km/h 73 % 0 mm
20:33 -11.1 °C -13.7 °C 34533.8 hPa ENE 11.9 km/h 11.9 km/h 73 % 0 mm
20:38 -11 °C -13.6 °C 34533.8 hPa East 6 km/h 6 km/h 73 % 0 mm
20:43 -11.1 °C -13.7 °C 34533.8 hPa SSW 6 km/h 6 km/h 73 % 0 mm
20:48 -11.1 °C -13.7 °C 34533.8 hPa East 8 km/h 8 km/h 73 % 0 mm
20:53 -11.1 °C -13.7 °C 34533.8 hPa SSE 6 km/h 6 km/h 73 % 0 mm
20:58 -11.1 °C -13.7 °C 34533.8 hPa ESE 3.7 km/h 3.7 km/h 73 % 0 mm
21:03 -11.1 °C -13.7 °C 34533.8 hPa ESE 9 km/h 9 km/h 73 % 0 mm
21:08 -11.1 °C -13.7 °C 34533.8 hPa SE 11.9 km/h 11.9 km/h 73 % 0 mm
21:18 -11.1 °C -13.7 °C 34533.8 hPa ESE 8 km/h 8 km/h 73 % 0 mm
21:23 -11.1 °C -13.7 °C 34533.8 hPa ESE 15 km/h 15 km/h 73 % 0 mm
21:28 -11.1 °C -13.7 °C 34567.7 hPa South 9 km/h 9 km/h 73 % 0 mm
21:33 -11.1 °C -13.7 °C 34567.7 hPa ESE 6 km/h 6 km/h 73 % 0 mm
21:38 -11.1 °C -13.8 °C 34567.7 hPa Calm     72 % 0 mm
21:43 -11.2 °C -13.9 °C 34601.5 hPa SW 6 km/h 6 km/h 72 % 0 mm
21:48 -11.2 °C -13.8 °C 34601.5 hPa SW 5.1 km/h 5.1 km/h 73 % 0 mm
21:53 -11.3 °C -13.9 °C 34601.5 hPa SW 6 km/h 6 km/h 73 % 0 mm
21:58 -11.3 °C -13.9 °C 34601.5 hPa WSW 6 km/h 6 km/h 73 % 0 mm
22:03 -11.3 °C -13.9 °C 34601.5 hPa SW 6 km/h 6 km/h 73 % 0 mm
22:08 -11.4 °C -13.9 °C 34601.5 hPa SW 3.1 km/h 3.1 km/h 74 % 0 mm
22:13 -11.4 °C -13.8 °C 34601.5 hPa Calm     75 % 0 mm
22:18 -11.5 °C -13.9 °C 34601.5 hPa Calm     75 % 0 mm
22:23 -11.6 °C -13.9 °C 34601.5 hPa Calm     75 % 0 mm
22:28 -11.6 °C -14.1 °C 34635.4 hPa WSW 7.6 km/h 7.6 km/h 74 % 0 mm
22:33 -11.7 °C -14.1 °C 34635.4 hPa WSW 6 km/h 6 km/h 75 % 0 mm
22:38 -11.8 °C -14.1 °C 34635.4 hPa WNW 4.2 km/h 4.2 km/h 75 % 0 mm
22:43 -11.8 °C -14.1 °C 34567.7 hPa WSW 6 km/h 6 km/h 75 % 0 mm
22:48 -11.9 °C -14.3 °C 34567.7 hPa West 6 km/h 6 km/h 75 % 0 mm
22:53 -11.9 °C -14.3 °C 34567.7 hPa SW 6.3 km/h 6.3 km/h 75 % 0 mm
22:58 -12 °C -14.5 °C 34601.5 hPa West 8.5 km/h 8.5 km/h 74 % 0 mm
23:03 -12 °C -14.6 °C 34601.5 hPa West 8.5 km/h 8.5 km/h 73 % 0 mm
23:08 -11.9 °C -14.9 °C 34601.5 hPa WSW 9 km/h 9 km/h 69 % 0 mm
23:13 -12 °C -15.2 °C 34567.7 hPa SW 6 km/h 6 km/h 67 % 0 mm
23:18 -12 °C -15.5 °C 34567.7 hPa SSW 9.8 km/h 9.8 km/h 65 % 0 mm
23:23 -12.1 °C -15.8 °C 34567.7 hPa WSW 11.1 km/h 11.1 km/h 63 % 0 mm
23:28 -12.2 °C -16.1 °C 34601.5 hPa WSW 9 km/h 9 km/h 62 % 0 mm
23:33 -12.3 °C -16.2 °C 34601.5 hPa SSW 9 km/h 9 km/h 62 % 0 mm
23:38 -12.2 °C -16.5 °C 34601.5 hPa SW 17.9 km/h 17.9 km/h 59 % 0 mm
23:43 -12.2 °C -16.8 °C 34601.5 hPa WSW 15 km/h 15 km/h 56 % 0 mm
23:48 -12.2 °C -16.9 °C 34601.5 hPa SW 14 km/h 14 km/h 56 % 0 mm
23:53 -12.2 °C -17 °C 34601.5 hPa WSW 10.3 km/h 10.3 km/h 55 % 0 mm
23:58 -12.2 °C -17.2 °C 34601.5 hPa WSW 11.9 km/h 11.9 km/h 54 % 0 mm
Meteo Sesrovires
Elogis d' Weather Underground - 2 mb

Guio original per  Jim McMurry - jmcmurry@mwt.net Adaptat per a la plantilla per  Wim van der Kuil - Leuven-Template.eu

Trobareu la nostra informacio del temps tambe a:

Weather Underground

AWEKAS